createdAt,value
2019-03-29T00:01:52.560Z,140.27
2019-03-29T00:04:20.834Z,130.33
2019-03-29T00:06:49.158Z,118.87
2019-03-29T00:09:18.103Z,107.33
2019-03-29T00:11:46.678Z,99.37
2019-03-29T00:14:15.805Z,97.07
2019-03-29T00:16:44.355Z,114.13
2019-03-29T00:19:32.090Z,121.93
2019-03-29T00:22:00.459Z,125.07
2019-03-29T00:24:28.858Z,129.60
2019-03-29T00:26:57.213Z,122.27
2019-03-29T00:29:25.797Z,127.43
2019-03-29T00:31:54.093Z,117.40
2019-03-29T00:34:22.654Z,123.20
2019-03-29T00:36:51.923Z,154.43
2019-03-29T00:39:20.780Z,143.17
2019-03-29T00:41:50.263Z,131.43
2019-03-29T00:44:19.038Z,124.50
2019-03-29T00:46:47.621Z,138.70
2019-03-29T00:49:15.979Z,146.60
2019-03-29T00:51:44.282Z,143.07
2019-03-29T00:54:12.866Z,139.17
2019-03-29T00:56:41.551Z,138.47
2019-03-29T00:59:09.853Z,136.93
2019-03-29T01:01:38.420Z,134.67
2019-03-29T01:04:06.729Z,136.33
2019-03-29T01:06:35.414Z,133.10
2019-03-29T01:09:04.989Z,129.87
2019-03-29T01:11:33.767Z,128.10
2019-03-29T01:14:02.350Z,130.03
2019-03-29T01:16:30.631Z,131.40
2019-03-29T01:18:59.311Z,125.13
2019-03-29T01:21:27.898Z,125.23
2019-03-29T01:23:56.482Z,121.23
2019-03-29T01:26:24.954Z,121.23
2019-03-29T01:28:53.650Z,122.20
2019-03-29T01:31:21.954Z,121.93
2019-03-29T01:33:51.891Z,114.83
2019-03-29T01:36:20.214Z,116.63
2019-03-29T01:38:48.494Z,111.23
2019-03-29T01:41:17.178Z,110.83
2019-03-29T01:43:45.483Z,107.13
2019-03-29T01:46:33.198Z,113.57
2019-03-29T01:49:01.975Z,107.50
2019-03-29T01:51:30.257Z,106.40
2019-03-29T01:53:58.570Z,108.93
2019-03-29T01:56:26.851Z,102.03
2019-03-29T01:58:55.217Z,103.03
2019-03-29T02:01:24.671Z,99.60
2019-03-29T02:03:52.970Z,101.77
2019-03-29T02:06:21.565Z,110.93
2019-03-29T02:08:49.851Z,122.87
2019-03-29T02:11:18.135Z,127.13
2019-03-29T02:13:46.455Z,134.20
2019-03-29T02:16:15.175Z,140.30
2019-03-29T02:18:43.460Z,125.60
2019-03-29T02:21:11.856Z,117.57
2019-03-29T02:23:40.518Z,123.00
2019-03-29T02:26:09.161Z,136.87
2019-03-29T02:28:37.614Z,127.37
2019-03-29T02:31:05.930Z,133.93
2019-03-29T02:33:34.238Z,127.50
2019-03-29T02:36:02.558Z,122.60
2019-03-29T02:38:30.899Z,124.90
2019-03-29T02:40:59.475Z,128.00
2019-03-29T02:43:27.793Z,124.43
2019-03-29T02:45:57.611Z,121.40
2019-03-29T02:48:26.159Z,120.47
2019-03-29T02:50:54.468Z,117.30
2019-03-29T02:53:22.763Z,116.60
2019-03-29T02:55:51.135Z,112.47
2019-03-29T02:58:19.425Z,112.90
2019-03-29T03:00:48.322Z,109.13
2019-03-29T03:03:17.045Z,106.80
2019-03-29T03:05:45.335Z,107.77
2019-03-29T03:08:13.647Z,104.43
2019-03-29T03:10:42.283Z,111.00
2019-03-29T03:13:10.973Z,101.37
2019-03-29T03:15:39.331Z,104.27
2019-03-29T03:18:07.932Z,101.97
2019-03-29T03:20:38.054Z,101.47
2019-03-29T03:23:06.630Z,97.07
2019-03-29T03:25:35.052Z,97.23
2019-03-29T03:28:03.457Z,97.07
2019-03-29T03:30:31.917Z,93.83
2019-03-29T03:33:00.761Z,95.80
2019-03-29T03:35:29.438Z,94.57
2019-03-29T03:37:58.030Z,94.70
2019-03-29T03:40:26.611Z,94.97
2019-03-29T03:42:55.211Z,90.47
2019-03-29T03:45:23.556Z,87.93
2019-03-29T03:47:52.111Z,92.47
2019-03-29T03:50:40.141Z,88.37
2019-03-29T03:53:09.210Z,84.77
2019-03-29T03:55:40.774Z,87.77
2019-03-29T03:58:09.952Z,83.07
2019-03-29T04:00:50.115Z,85.97
2019-03-29T04:03:20.060Z,84.33
2019-03-29T04:05:49.644Z,80.50
2019-03-29T04:08:19.226Z,80.53
2019-03-29T04:10:47.531Z,81.10
2019-03-29T04:13:15.925Z,77.43
2019-03-29T04:15:44.776Z,77.87
2019-03-29T04:18:15.798Z,76.60
2019-03-29T04:20:43.382Z,74.00
2019-03-29T04:23:11.968Z,79.17
2019-03-29T04:25:40.258Z,75.80
2019-03-29T04:28:08.822Z,75.67
2019-03-29T04:30:37.123Z,71.83
2019-03-29T04:33:08.873Z,71.50
2019-03-29T04:35:35.808Z,73.23
2019-03-29T04:38:04.099Z,67.07
2019-03-29T04:40:32.665Z,69.60
2019-03-29T04:43:01.246Z,71.73
2019-03-29T04:45:29.580Z,67.30
2019-03-29T04:47:58.211Z,66.63
2019-03-29T04:50:26.506Z,68.37
2019-03-29T04:52:54.830Z,64.47
2019-03-29T04:55:23.142Z,65.90
2019-03-29T04:57:51.433Z,64.23
2019-03-29T05:00:20.305Z,66.33
2019-03-29T05:02:48.612Z,64.60
2019-03-29T05:05:16.926Z,61.43
2019-03-29T05:07:45.205Z,61.47
2019-03-29T05:10:21.022Z,58.40
2019-03-29T05:12:44.969Z,58.00
2019-03-29T05:15:13.564Z,59.27
2019-03-29T05:17:42.135Z,59.10
2019-03-29T05:20:10.724Z,60.43
2019-03-29T05:22:39.405Z,59.07
2019-03-29T05:25:07.987Z,57.17
2019-03-29T05:27:36.570Z,56.03
2019-03-29T05:30:06.174Z,58.40
2019-03-29T05:32:34.547Z,55.27
2019-03-29T05:35:03.098Z,55.40
2019-03-29T05:37:31.403Z,52.63
2019-03-29T05:39:59.994Z,55.50
2019-03-29T05:42:28.299Z,54.63
2019-03-29T05:44:56.591Z,51.13
2019-03-29T05:47:24.881Z,52.73
2019-03-29T05:49:53.523Z,52.30
2019-03-29T05:52:21.822Z,52.43
2019-03-29T05:54:50.119Z,50.63
2019-03-29T05:57:18.666Z,52.60
2019-03-29T05:59:47.403Z,50.47
2019-03-29T06:02:15.744Z,49.83
2019-03-29T06:04:44.153Z,47.77
2019-03-29T06:07:12.450Z,52.07
2019-03-29T06:09:40.738Z,49.57
2019-03-29T06:12:09.016Z,50.03
2019-03-29T06:14:37.326Z,47.03
2019-03-29T06:17:06.000Z,47.40
2019-03-29T06:19:34.767Z,45.27
2019-03-29T06:22:03.061Z,47.07
2019-03-29T06:24:34.163Z,47.47
2019-03-29T06:27:02.521Z,46.37
2019-03-29T06:29:31.178Z,48.73
2019-03-29T06:31:59.466Z,46.03
2019-03-29T06:34:27.741Z,44.97
2019-03-29T06:36:56.044Z,43.50
2019-03-29T06:39:24.392Z,42.03
2019-03-29T06:41:52.974Z,43.27
2019-03-29T06:44:21.270Z,44.50
2019-03-29T06:46:49.556Z,42.33
2019-03-29T06:49:18.114Z,43.20
2019-03-29T06:51:46.701Z,42.27
2019-03-29T06:54:15.003Z,38.53
2019-03-29T06:56:43.291Z,41.67
2019-03-29T06:59:11.938Z,43.07
2019-03-29T07:01:40.298Z,41.83
2019-03-29T07:04:08.917Z,39.10
2019-03-29T07:06:37.482Z,40.80
2019-03-29T07:09:06.688Z,37.33
2019-03-29T07:11:35.046Z,41.00
2019-03-29T07:14:03.773Z,38.53
2019-03-29T07:16:32.105Z,38.67
2019-03-29T07:19:00.709Z,38.27
2019-03-29T07:21:29.019Z,39.70
2019-03-29T07:23:57.510Z,36.33
2019-03-29T07:26:25.880Z,38.17
2019-03-29T07:28:54.153Z,38.57
2019-03-29T07:31:22.815Z,38.60
2019-03-29T07:33:51.099Z,36.77
2019-03-29T07:36:19.673Z,36.23
2019-03-29T07:38:47.986Z,37.87
2019-03-29T07:41:30.699Z,36.37
2019-03-29T07:43:46.646Z,35.20
2019-03-29T07:46:14.954Z,38.17
2019-03-29T07:48:43.250Z,36.63
2019-03-29T07:51:11.886Z,34.27
2019-03-29T07:53:40.472Z,34.47
2019-03-29T07:56:08.750Z,38.03
2019-03-29T07:58:37.073Z,50.57
2019-03-29T08:01:05.354Z,91.33
2019-03-29T08:03:33.991Z,91.93
2019-03-29T08:06:02.290Z,93.63
2019-03-29T08:08:32.305Z,90.90
2019-03-29T08:11:00.621Z,93.23
2019-03-29T08:13:28.896Z,87.80
2019-03-29T08:15:57.521Z,95.53
2019-03-29T08:18:25.824Z,88.50
2019-03-29T08:20:54.110Z,112.17
2019-03-29T08:23:22.667Z,114.63
2019-03-29T08:25:51.240Z,110.63
2019-03-29T08:28:19.833Z,109.53
2019-03-29T08:30:48.415Z,106.90
2019-03-29T08:33:16.729Z,108.00
2019-03-29T08:35:45.268Z,108.63
2019-03-29T08:38:13.860Z,105.23
2019-03-29T08:40:45.065Z,100.43
2019-03-29T08:43:12.265Z,104.87
2019-03-29T08:45:40.546Z,98.20
2019-03-29T08:48:09.230Z,98.40
2019-03-29T08:50:37.528Z,105.47
2019-03-29T08:53:06.180Z,99.07
2019-03-29T08:55:45.184Z,112.53
2019-03-29T08:58:04.879Z,122.37
2019-03-29T09:00:33.214Z,125.87
2019-03-29T09:03:01.570Z,116.20
2019-03-29T09:05:30.114Z,118.27
2019-03-29T09:07:58.810Z,109.50
2019-03-29T09:10:27.606Z,105.23
2019-03-29T09:12:55.887Z,109.93
2019-03-29T09:15:24.190Z,116.57
2019-03-29T09:17:52.740Z,133.13
2019-03-29T09:20:21.311Z,138.87
2019-03-29T09:22:49.704Z,127.43
2019-03-29T09:25:20.857Z,126.43
2019-03-29T09:27:48.470Z,134.70
2019-03-29T09:30:17.099Z,154.17
2019-03-29T09:32:45.455Z,156.17
2019-03-29T09:35:14.047Z,151.03
2019-03-29T09:37:42.329Z,138.67
2019-03-29T09:40:13.763Z,145.20
2019-03-29T09:42:41.230Z,145.90
2019-03-29T09:45:09.831Z,135.07
2019-03-29T09:47:40.582Z,131.90
2019-03-29T09:50:10.279Z,156.40
2019-03-29T09:52:38.530Z,163.93
2019-03-29T09:55:07.143Z,162.43
2019-03-29T09:57:37.955Z,149.13
2019-03-29T10:00:17.937Z,151.80
2019-03-29T10:02:37.844Z,154.77
2019-03-29T10:05:06.619Z,150.23
2019-03-29T10:07:35.260Z,151.97
2019-03-29T10:10:04.926Z,138.60
2019-03-29T10:12:43.553Z,144.87
2019-03-29T10:15:03.674Z,145.23
2019-03-29T10:17:31.982Z,153.53
2019-03-29T10:20:00.408Z,147.00
2019-03-29T10:22:29.034Z,163.63
2019-03-29T10:24:57.425Z,180.97
2019-03-29T10:27:25.730Z,170.77
2019-03-29T10:29:54.359Z,194.60
2019-03-29T10:32:22.989Z,208.20
2019-03-29T10:34:51.431Z,206.00
2019-03-29T10:37:20.024Z,197.17
2019-03-29T10:39:48.333Z,177.40
2019-03-29T10:42:16.967Z,174.03
2019-03-29T10:44:45.559Z,208.47
2019-03-29T10:47:14.143Z,239.77
2019-03-29T10:49:42.450Z,284.07
2019-03-29T10:52:11.106Z,254.77
2019-03-29T10:54:39.420Z,248.53
2019-03-29T10:57:08.071Z,233.10
2019-03-29T10:59:36.651Z,227.63
2019-03-29T11:02:04.970Z,230.70
2019-03-29T11:04:33.290Z,217.23
2019-03-29T11:07:01.892Z,221.47
2019-03-29T11:09:30.188Z,217.63
2019-03-29T11:11:58.856Z,212.93
2019-03-29T11:14:27.146Z,203.83
2019-03-29T11:16:55.832Z,202.80
2019-03-29T11:19:24.129Z,208.53
2019-03-29T11:21:52.788Z,200.10
2019-03-29T11:24:21.220Z,192.43
2019-03-29T11:26:49.840Z,190.07
2019-03-29T11:29:18.427Z,184.33
2019-03-29T11:31:47.007Z,227.57
2019-03-29T11:34:15.335Z,245.53
2019-03-29T11:36:43.981Z,322.77
2019-03-29T11:39:12.554Z,275.10
2019-03-29T11:41:41.138Z,269.00
2019-03-29T11:44:09.726Z,275.00
2019-03-29T11:46:38.019Z,268.23
2019-03-29T11:49:06.726Z,250.60
2019-03-29T11:51:35.012Z,252.33
2019-03-29T11:54:03.644Z,235.87
2019-03-29T11:56:31.949Z,234.97
2019-03-29T11:59:00.616Z,226.23
2019-03-29T12:01:29.211Z,230.67
2019-03-29T12:03:57.894Z,225.00
2019-03-29T12:06:26.183Z,222.20
2019-03-29T12:08:57.122Z,226.73
2019-03-29T12:11:25.178Z,202.30
2019-03-29T12:13:53.491Z,192.67
2019-03-29T12:16:21.778Z,199.10
2019-03-29T12:18:50.174Z,178.93
2019-03-29T12:21:18.463Z,210.77
2019-03-29T12:23:46.769Z,229.63
2019-03-29T12:26:15.058Z,266.73
2019-03-29T12:28:43.718Z,249.07
2019-03-29T12:31:12.274Z,243.53
2019-03-29T12:33:40.890Z,238.60
2019-03-29T12:36:09.471Z,230.27
2019-03-29T12:38:37.784Z,233.93
2019-03-29T12:41:06.099Z,233.63
2019-03-29T12:43:34.744Z,227.20
2019-03-29T12:46:03.403Z,214.70
2019-03-29T12:48:31.681Z,220.93
2019-03-29T12:51:00.254Z,213.50
2019-03-29T12:53:28.570Z,207.80
2019-03-29T12:55:57.219Z,218.43
2019-03-29T12:58:25.802Z,246.77
2019-03-29T13:00:54.102Z,250.50
2019-03-29T13:03:22.488Z,281.10
2019-03-29T13:05:50.773Z,277.13
2019-03-29T13:08:19.435Z,270.30
2019-03-29T13:10:48.002Z,268.87
2019-03-29T13:13:16.599Z,250.50
2019-03-29T13:15:44.919Z,253.47
2019-03-29T13:18:13.287Z,256.87
2019-03-29T13:20:41.677Z,250.00
2019-03-29T13:23:09.974Z,243.90
2019-03-29T13:25:38.691Z,231.67
2019-03-29T13:28:06.975Z,234.57
2019-03-29T13:30:35.550Z,229.13
2019-03-29T13:33:03.861Z,228.27
2019-03-29T13:35:32.520Z,220.53
2019-03-29T13:38:01.098Z,218.37
2019-03-29T13:40:29.405Z,222.53
2019-03-29T13:42:58.164Z,244.67
2019-03-29T13:45:28.009Z,253.23
2019-03-29T13:47:56.642Z,261.77
2019-03-29T13:50:25.250Z,267.87
2019-03-29T13:52:53.588Z,265.53
2019-03-29T13:55:22.313Z,271.27
2019-03-29T13:57:50.607Z,265.43
2019-03-29T14:00:19.282Z,259.93
2019-03-29T14:02:47.577Z,248.23
2019-03-29T14:05:16.263Z,241.70
2019-03-29T14:07:44.918Z,233.67
2019-03-29T14:10:13.251Z,251.17
2019-03-29T14:12:41.960Z,242.83
2019-03-29T14:15:11.383Z,240.73
2019-03-29T14:17:39.966Z,239.57
2019-03-29T14:20:08.756Z,230.23
2019-03-29T14:22:37.343Z,231.87
2019-03-29T14:25:08.635Z,220.50
2019-03-29T14:27:37.276Z,202.90
2019-03-29T14:30:06.678Z,196.37
2019-03-29T14:32:34.984Z,190.87
2019-03-29T14:35:05.283Z,186.53
2019-03-29T14:37:33.892Z,186.17
2019-03-29T14:40:02.551Z,188.87
2019-03-29T14:42:30.861Z,182.07
2019-03-29T14:44:59.166Z,183.80
2019-03-29T14:47:39.700Z,175.60
2019-03-29T14:49:58.233Z,181.53
2019-03-29T14:52:26.537Z,186.83
2019-03-29T14:54:54.898Z,163.87
2019-03-29T14:57:23.463Z,197.00
2019-03-29T14:59:51.770Z,188.67
2019-03-29T15:02:22.337Z,223.77
2019-03-29T15:04:51.161Z,186.00
2019-03-29T15:07:19.838Z,141.93
2019-03-29T15:09:48.286Z,119.27
2019-03-29T15:12:16.594Z,128.90
2019-03-29T15:14:44.880Z,119.43
2019-03-29T15:17:13.182Z,106.90
2019-03-29T15:19:41.469Z,112.83
2019-03-29T15:22:09.798Z,116.70
2019-03-29T15:24:38.486Z,120.93
2019-03-29T15:27:07.257Z,117.83
2019-03-29T15:29:35.603Z,122.23
2019-03-29T15:32:03.978Z,125.53
2019-03-29T15:34:32.624Z,117.13
2019-03-29T15:37:00.928Z,115.73
2019-03-29T15:39:29.210Z,115.67
2019-03-29T15:41:57.527Z,115.57
2019-03-29T15:44:25.812Z,117.37
2019-03-29T15:46:54.110Z,112.87
2019-03-29T15:49:22.687Z,105.77
2019-03-29T15:51:51.043Z,109.17
2019-03-29T15:54:19.660Z,112.03
2019-03-29T15:56:47.950Z,114.77
2019-03-29T15:59:16.610Z,113.27
2019-03-29T16:01:44.915Z,108.43
2019-03-29T16:04:13.219Z,109.67
2019-03-29T16:06:41.779Z,114.77
2019-03-29T16:09:10.434Z,114.27
2019-03-29T16:11:39.124Z,114.83
2019-03-29T16:14:07.669Z,112.67
2019-03-29T16:16:35.973Z,111.37
2019-03-29T16:19:04.457Z,118.20
2019-03-29T16:21:33.050Z,109.27
2019-03-29T16:24:01.636Z,114.07
2019-03-29T16:26:29.944Z,111.23
2019-03-29T16:28:58.227Z,109.23
2019-03-29T16:31:26.610Z,108.17
2019-03-29T16:33:55.255Z,99.47
2019-03-29T16:36:23.557Z,92.97
2019-03-29T16:38:52.110Z,126.33
2019-03-29T16:41:23.680Z,129.87
2019-03-29T16:43:51.974Z,144.50
2019-03-29T16:46:20.290Z,137.43
2019-03-29T16:48:48.902Z,133.00
2019-03-29T16:51:17.193Z,133.23
2019-03-29T16:53:45.502Z,160.10
2019-03-29T16:56:13.821Z,148.27
2019-03-29T16:58:42.423Z,173.17
2019-03-29T17:01:11.020Z,175.57
2019-03-29T17:03:39.337Z,165.03
2019-03-29T17:06:07.618Z,142.10
2019-03-29T17:08:36.246Z,133.77
2019-03-29T17:11:04.534Z,140.00
2019-03-29T17:13:33.305Z,140.70
2019-03-29T17:16:02.445Z,133.07
2019-03-29T17:18:30.868Z,135.60
2019-03-29T17:20:59.231Z,140.37
2019-03-29T17:23:27.604Z,136.73
2019-03-29T17:25:59.392Z,131.53
2019-03-29T17:28:27.839Z,185.00
2019-03-29T17:31:04.067Z,235.20
2019-03-29T17:33:32.373Z,182.67
2019-03-29T17:36:00.768Z,184.10
2019-03-29T17:38:29.045Z,189.50
2019-03-29T17:40:57.354Z,191.13
2019-03-29T17:43:25.658Z,190.93
2019-03-29T17:45:53.960Z,188.73
2019-03-29T17:48:22.606Z,188.77
2019-03-29T17:50:50.906Z,186.13
2019-03-29T17:53:22.239Z,175.40
2019-03-29T17:55:50.811Z,163.27
2019-03-29T17:58:19.123Z,155.03
2019-03-29T18:00:47.431Z,161.13
2019-03-29T18:03:15.917Z,165.67
2019-03-29T18:05:47.195Z,160.10
2019-03-29T18:08:15.521Z,153.03
2019-03-29T18:10:43.933Z,156.47
2019-03-29T18:13:12.282Z,155.10
2019-03-29T18:15:41.024Z,155.67
2019-03-29T18:18:12.867Z,152.10
2019-03-29T18:20:40.289Z,149.70
2019-03-29T18:23:08.607Z,142.97
2019-03-29T18:25:41.731Z,153.33
2019-03-29T18:28:10.107Z,135.87
2019-03-29T18:30:40.306Z,150.70
2019-03-29T18:33:08.894Z,150.67
2019-03-29T18:35:37.571Z,176.03
2019-03-29T18:38:06.035Z,165.67
2019-03-29T18:40:34.828Z,251.80
2019-03-29T18:43:03.474Z,201.97
2019-03-29T18:45:32.243Z,173.70
2019-03-29T18:48:00.538Z,176.13
2019-03-29T18:50:28.844Z,175.93
2019-03-29T18:52:57.886Z,188.53
2019-03-29T18:55:26.175Z,176.03
2019-03-29T18:57:54.844Z,170.63
2019-03-29T19:00:32.053Z,173.43
2019-03-29T19:03:00.437Z,166.07
2019-03-29T19:05:29.143Z,162.93
2019-03-29T19:07:57.553Z,160.20
2019-03-29T19:10:28.204Z,159.97
2019-03-29T19:12:56.642Z,153.93
2019-03-29T19:15:25.074Z,161.47
2019-03-29T19:17:53.752Z,162.13
2019-03-29T19:20:27.816Z,141.77
2019-03-29T19:22:53.055Z,162.07
2019-03-29T19:25:21.893Z,166.50
2019-03-29T19:27:50.559Z,157.00
2019-03-29T19:30:19.115Z,164.27
2019-03-29T19:32:48.168Z,156.20
2019-03-29T19:35:17.130Z,157.07
2019-03-29T19:37:45.757Z,163.93
2019-03-29T19:40:14.379Z,166.37
2019-03-29T19:42:42.778Z,157.70
2019-03-29T19:45:11.840Z,176.97
2019-03-29T19:47:40.448Z,159.57
2019-03-29T19:50:08.844Z,156.70
2019-03-29T19:52:40.266Z,160.93
2019-03-29T19:55:08.629Z,173.40
2019-03-29T19:57:37.265Z,160.07
2019-03-29T20:00:11.726Z,157.33
2019-03-29T20:02:40.054Z,155.93
2019-03-29T20:05:13.321Z,152.83
2019-03-29T20:07:42.003Z,156.33
2019-03-29T20:10:10.497Z,162.20
2019-03-29T20:12:39.173Z,174.53
2019-03-29T20:15:08.134Z,160.77
2019-03-29T20:17:36.956Z,165.90
2019-03-29T20:20:06.340Z,159.80
2019-03-29T20:22:35.164Z,156.67
2019-03-29T20:25:04.338Z,156.03
2019-03-29T20:27:32.689Z,150.60
2019-03-29T20:30:01.234Z,140.23
2019-03-29T20:32:29.563Z,163.60
2019-03-29T20:34:58.146Z,170.90
2019-03-29T20:37:26.558Z,155.37
2019-03-29T20:39:54.871Z,169.13
2019-03-29T20:42:24.901Z,197.93
2019-03-29T20:44:53.509Z,198.40
2019-03-29T20:47:21.867Z,190.57
2019-03-29T20:49:50.166Z,192.10
2019-03-29T20:52:18.763Z,204.03
2019-03-29T20:54:47.506Z,199.73
2019-03-29T20:57:16.266Z,199.13
2019-03-29T20:59:44.710Z,205.60
2019-03-29T21:02:13.146Z,196.90
2019-03-29T21:04:41.809Z,200.10
2019-03-29T21:07:10.672Z,194.47
2019-03-29T21:09:39.026Z,183.60
2019-03-29T21:12:07.651Z,196.20
2019-03-29T21:14:36.074Z,194.47
2019-03-29T21:17:04.456Z,217.90
2019-03-29T21:19:35.866Z,233.87
2019-03-29T21:22:04.535Z,224.90
2019-03-29T21:24:32.842Z,243.50
2019-03-29T21:27:01.255Z,205.20
2019-03-29T21:29:29.867Z,202.40
2019-03-29T21:31:58.463Z,207.80
2019-03-29T21:34:27.065Z,175.10
2019-03-29T21:36:55.726Z,184.17
2019-03-29T21:39:25.902Z,187.17
2019-03-29T21:41:54.381Z,183.30
2019-03-29T21:44:23.016Z,183.47
2019-03-29T21:46:51.330Z,169.70
2019-03-29T21:49:19.981Z,209.90
2019-03-29T21:51:48.568Z,229.30
2019-03-29T21:54:17.666Z,213.63
2019-03-29T21:56:46.378Z,191.93
2019-03-29T21:59:15.105Z,199.13
2019-03-29T22:01:45.958Z,222.17
2019-03-29T22:04:16.453Z,209.43
2019-03-29T22:06:45.693Z,209.33
2019-03-29T22:09:14.103Z,202.90
2019-03-29T22:11:45.048Z,203.17
2019-03-29T22:14:15.127Z,196.53
2019-03-29T22:16:43.822Z,201.87
2019-03-29T22:19:12.888Z,184.30
2019-03-29T22:21:41.723Z,165.43
2019-03-29T22:24:12.195Z,178.57
2019-03-29T22:26:41.958Z,126.90
2019-03-29T22:29:10.341Z,94.87
2019-03-29T22:31:38.919Z,100.63
2019-03-29T22:34:07.586Z,132.23
2019-03-29T22:36:35.898Z,123.10
2019-03-29T22:39:06.750Z,122.30
2019-03-29T22:41:35.388Z,137.30
2019-03-29T22:44:03.789Z,135.60
2019-03-29T22:46:32.383Z,147.13
2019-03-29T22:49:00.779Z,161.67
2019-03-29T22:51:29.079Z,159.50
2019-03-29T22:53:57.718Z,165.90
2019-03-29T22:56:26.387Z,164.37
2019-03-29T22:58:54.963Z,155.73
2019-03-29T23:01:23.752Z,150.80
2019-03-29T23:03:52.345Z,225.33
2019-03-29T23:06:20.927Z,174.97
2019-03-29T23:08:49.240Z,150.87
2019-03-29T23:11:17.631Z,194.53
2019-03-29T23:13:45.915Z,192.23
2019-03-29T23:16:14.538Z,203.73
2019-03-29T23:18:42.830Z,193.43
2019-03-29T23:21:11.407Z,181.17
2019-03-29T23:23:39.994Z,176.97
2019-03-29T23:26:08.290Z,172.67
2019-03-29T23:28:36.591Z,185.37
2019-03-29T23:31:05.683Z,180.60
2019-03-29T23:33:34.194Z,176.57
2019-03-29T23:36:02.802Z,171.23
2019-03-29T23:38:31.378Z,175.03
2019-03-29T23:40:59.982Z,167.57
2019-03-29T23:43:28.868Z,157.03
2019-03-29T23:45:57.459Z,156.73
2019-03-29T23:48:26.022Z,158.53
2019-03-29T23:50:54.330Z,176.23
2019-03-29T23:53:22.766Z,169.50
2019-03-29T23:55:51.470Z,161.43
2019-03-29T23:58:20.066Z,186.97
